Time;durP1;ratioP1;P1;durP2;ratioP2;P2;SDS_P1;SDS_P2;PMS_P1;PMS_P2;Temp;Humidity;BMP_temperature;BMP_pressure;BME280_temperature;BME280_humidity;BME280_pressure;Samples;Min_cycle;Max_cycle;Signal;HPM_P1;HPM_P2
2022/11/29 00:01:27;;;;;;;28.40;19.27;;;6.10;99.90;;;;;;5046506;28;20036;-70
2022/11/29 00:03:54;;;;;;;28.15;18.77;;;6.20;99.90;;;;;;5051365;28;20071;-70
2022/11/29 00:06:22;;;;;;;28.65;19.40;;;6.10;99.90;;;;;;5045227;28;20081;-70
2022/11/29 00:08:48;;;;;;;32.75;19.13;;;6.20;99.90;;;;;;5049800;28;20348;-70
2022/11/29 00:14:12;;;;;;;26.10;17.77;;;6.10;99.90;;;;;;5055146;28;20590;-69
2022/11/29 00:16:41;;;;;;;29.50;18.55;;;6.10;99.90;;;;;;5053995;28;20112;-70
2022/11/29 00:19:07;;;;;;;26.42;17.35;;;6.10;99.90;;;;;;5056002;28;20016;-70
2022/11/29 00:21:33;;;;;;;31.08;17.92;;;6.10;99.90;;;;;;5058811;28;20028;-70
2022/11/29 00:23:59;;;;;;;25.83;17.27;;;6.20;99.90;;;;;;5051510;28;20426;-70
2022/11/29 00:26:24;;;;;;;36.83;18.45;;;6.10;99.90;;;;;;5059924;28;20036;-70
2022/11/29 00:28:50;;;;;;;27.58;17.90;;;6.10;99.90;;;;;;5052104;28;20552;-70
2022/11/29 00:31:19;;;;;;;25.05;16.48;;;6.10;99.90;;;;;;5052308;28;20512;-70
2022/11/29 00:33:45;;;;;;;24.92;16.85;;;6.10;99.90;;;;;;5055011;28;20044;-70
2022/11/29 00:36:11;;;;;;;27.35;16.83;;;6.20;99.90;;;;;;5056701;28;20024;-70
2022/11/29 00:38:37;;;;;;;25.00;16.75;;;6.20;99.90;;;;;;5059229;28;20484;-70
2022/11/29 00:41:03;;;;;;;24.17;16.88;;;6.10;99.90;;;;;;5059875;28;20082;-70
2022/11/29 00:43:28;;;;;;;23.52;15.55;;;6.10;99.90;;;;;;5053762;28;20440;-70
2022/11/29 00:45:54;;;;;;;23.63;14.95;;;6.10;99.90;;;;;;5052695;28;20035;-70
2022/11/29 00:48:19;;;;;;;22.10;15.18;;;6.10;99.90;;;;;;5050143;28;20036;-71
2022/11/29 00:50:45;;;;;;;22.88;15.55;;;6.10;99.90;;;;;;5044899;28;20081;-71
2022/11/29 00:53:11;;;;;;;22.48;15.13;;;6.10;99.90;;;;;;5058551;28;20033;-70
2022/11/29 00:55:36;;;;;;;21.33;14.88;;;6.10;99.90;;;;;;5051645;28;20024;-69
2022/11/29 00:58:02;;;;;;;22.48;15.63;;;6.10;99.90;;;;;;5051552;28;20032;-69
2022/11/29 01:00:28;;;;;;;21.92;15.00;;;6.10;99.90;;;;;;5055038;28;20427;-69
2022/11/29 01:02:53;;;;;;;22.05;14.27;;;6.10;99.90;;;;;;5043637;28;20518;-70
2022/11/29 01:05:19;;;;;;;20.13;14.20;;;6.10;99.90;;;;;;5050572;28;20036;-70
2022/11/29 01:07:45;;;;;;;19.38;13.68;;;6.10;99.90;;;;;;5062706;28;20055;-70
2022/11/29 01:10:10;;;;;;;19.40;13.73;;;6.10;99.90;;;;;;5056395;28;20645;-70
2022/11/29 01:12:38;;;;;;;19.63;13.57;;;6.10;99.90;;;;;;5055130;28;20028;-70
2022/11/29 01:15:07;;;;;;;20.95;13.00;;;6.20;99.90;;;;;;5055816;28;20078;-70
2022/11/29 01:17:38;;;;;;;19.02;13.30;;;6.20;99.90;;;;;;5052640;28;20055;-70
2022/11/29 01:20:05;;;;;;;18.83;13.32;;;6.10;99.90;;;;;;5049847;28;20028;-70
2022/11/29 01:22:32;;;;;;;19.38;13.80;;;6.20;99.90;;;;;;5050787;28;20021;-70
2022/11/29 01:24:58;;;;;;;19.42;13.43;;;6.20;99.90;;;;;;5060856;28;20382;-70
2022/11/29 01:27:23;;;;;;;19.88;13.38;;;6.20;99.90;;;;;;5059050;28;20428;-70
2022/11/29 01:29:49;;;;;;;22.42;13.98;;;6.10;99.90;;;;;;5060291;28;20045;-69
2022/11/29 01:32:15;;;;;;;18.83;13.27;;;6.10;99.90;;;;;;5049348;28;20064;-70
2022/11/29 01:34:40;;;;;;;20.10;13.00;;;6.10;99.90;;;;;;5055366;28;20112;-70
2022/11/29 01:37:06;;;;;;;19.40;12.93;;;6.20;99.90;;;;;;5055981;28;20476;-70
2022/11/29 01:39:31;;;;;;;18.17;12.60;;;6.20;99.90;;;;;;5055167;28;20086;-70
2022/11/29 01:41:58;;;;;;;17.95;12.52;;;6.20;99.90;;;;;;5062688;28;20604;-70
2022/11/29 01:44:24;;;;;;;16.15;11.43;;;6.30;99.90;;;;;;5057075;28;20355;-70
2022/11/29 01:46:50;;;;;;;16.83;11.75;;;6.30;99.90;;;;;;5050373;28;20025;-70
2022/11/29 01:49:23;;;;;;;16.95;11.65;;;6.30;99.90;;;;;;5052533;28;20028;-70
2022/11/29 01:51:52;;;;;;;18.90;12.40;;;6.30;99.90;;;;;;5046960;28;20032;-70
2022/11/29 01:54:18;;;;;;;15.65;11.52;;;6.30;99.90;;;;;;5051136;28;20483;-70
2022/11/29 01:56:47;;;;;;;15.88;11.63;;;6.30;99.90;;;;;;5053109;28;20040;-70
2022/11/29 01:59:17;;;;;;;18.75;11.82;;;6.30;99.90;;;;;;5052111;28;20025;-70
2022/11/29 02:01:43;;;;;;;16.08;11.48;;;6.30;99.90;;;;;;5050217;28;20037;-70
2022/11/29 02:04:09;;;;;;;16.88;11.52;;;6.30;99.90;;;;;;5048401;28;20033;-70
2022/11/29 02:06:38;;;;;;;32.08;12.70;;;6.30;99.90;;;;;;5061614;28;20620;-70
2022/11/29 02:09:15;;;;;;;18.23;12.80;;;6.30;99.90;;;;;;5056386;28;20033;-70
2022/11/29 02:12:11;;;;;;;14.93;10.98;;;6.30;99.90;;;;;;5045108;28;20031;-70
2022/11/29 02:14:55;;;;;;;28.88;11.52;;;6.30;99.90;;;;;;5049091;28;20009;-70
2022/11/29 02:17:39;;;;;;;18.77;11.50;;;6.30;99.90;;;;;;5047136;28;20593;-70
2022/11/29 02:20:05;;;;;;;;;;;6.30;99.90;;;;;;5044080;28;20066;-70
2022/11/29 02:22:34;;;;;;;20.00;11.50;;;6.30;99.90;;;;;;5045952;28;19939;-70
2022/11/29 02:25:22;;;;;;;26.88;11.38;;;6.30;99.90;;;;;;5040446;28;20033;-70
2022/11/29 02:28:29;;;;;;;14.10;10.70;;;6.30;99.90;;;;;;5045162;28;20037;-70
2022/11/29 02:31:21;;;;;;;19.05;11.52;;;6.30;99.90;;;;;;5012396;28;20044;-70
2022/11/29 02:34:17;;;;;;;14.57;10.93;;;6.30;99.90;;;;;;5047531;28;20383;-70
2022/11/29 02:36:55;;;;;;;14.45;11.48;;;6.30;99.90;;;;;;5043723;28;20024;-70
2022/11/29 02:39:55;;;;;;;17.95;11.15;;;6.30;99.90;;;;;;5045223;28;20360;-70
2022/11/29 02:42:29;;;;;;;52.30;11.20;;;6.30;99.90;;;;;;5048646;28;20029;-70
2022/11/29 02:45:06;;;;;;;21.80;11.70;;;6.30;99.90;;;;;;5045291;28;20134;-70
2022/11/29 02:48:10;;;;;;;19.25;11.27;;;6.30;99.90;;;;;;5051293;28;20062;-71
2022/11/29 02:51:08;;;;;;;20.52;10.77;;;6.30;99.90;;;;;;5051886;28;20124;-70
2022/11/29 02:53:52;;;;;;;27.42;10.98;;;6.30;99.90;;;;;;5045771;28;20406;-70
2022/11/29 02:56:37;;;;;;;;;;;6.30;99.90;;;;;;5046830;28;20048;-71
2022/11/29 02:59:34;;;;;;;17.02;10.63;;;6.30;99.90;;;;;;5043008;28;19915;-71
2022/11/29 03:02:29;;;;;;;36.75;11.60;;;6.30;99.90;;;;;;5049624;28;20021;-71
2022/11/29 03:05:20;;;;;;;16.02;11.23;;;6.30;99.90;;;;;;5045439;28;20086;-70
2022/11/29 03:08:23;;;;;;;51.88;11.73;;;6.30;99.90;;;;;;5057074;28;20040;-70
2022/11/29 03:11:06;;;;;;;59.53;12.63;;;6.30;99.90;;;;;;5062186;28;20029;-71
2022/11/29 03:13:32;;;;;;;28.58;11.85;;;6.30;99.90;;;;;;5053544;28;20052;-71
2022/11/29 03:16:08;;;;;;;17.35;11.48;;;6.30;99.90;;;;;;5056568;28;20056;-71
2022/11/29 03:19:15;;;;;;;14.85;11.10;;;6.30;99.90;;;;;;5054042;28;20032;-70
2022/11/29 03:21:54;;;;;;;24.55;11.48;;;6.30;99.90;;;;;;5031342;28;20083;-71
2022/11/29 03:24:30;;;;;;;16.42;10.98;;;6.30;99.90;;;;;;5060765;28;20029;-70
2022/11/29 03:27:03;;;;;;;19.33;11.77;;;6.30;99.90;;;;;;5061773;28;20024;-70
2022/11/29 03:29:40;;;;;;;14.88;11.15;;;6.30;99.90;;;;;;5055330;28;20021;-70
2022/11/29 03:32:14;;;;;;;13.27;10.73;;;6.30;99.90;;;;;;5060057;28;20379;-70
2022/11/29 03:35:01;;;;;;;14.02;10.82;;;6.30;99.90;;;;;;5057548;28;20036;-70
2022/11/29 03:37:45;;;;;;;13.45;10.50;;;6.30;99.90;;;;;;5052862;28;20267;-70
2022/11/29 03:40:21;;;;;;;14.52;10.70;;;6.30;99.90;;;;;;5057565;28;20033;-70
2022/11/29 03:42:58;;;;;;;15.60;11.35;;;6.30;99.90;;;;;;5060338;28;20027;-70
2022/11/29 03:45:33;;;;;;;14.60;10.50;;;6.30;99.90;;;;;;5048012;28;20257;-72
2022/11/29 03:48:10;;;;;;;16.63;11.73;;;6.30;99.90;;;;;;5048082;28;20043;-70
2022/11/29 03:50:50;;;;;;;15.27;11.73;;;6.30;99.90;;;;;;5054660;28;20100;-70
2022/11/29 03:53:46;;;;;;;15.88;11.50;;;6.20;99.90;;;;;;5044531;28;20737;-70
2022/11/29 03:56:28;;;;;;;15.15;11.13;;;6.30;99.90;;;;;;5051218;28;20047;-70
2022/11/29 03:59:33;;;;;;;14.02;10.73;;;6.30;99.90;;;;;;5056109;28;20477;-71
2022/11/29 04:02:36;;;;;;;13.90;10.60;;;6.30;99.90;;;;;;4955645;28;20231;-70
2022/11/29 04:05:43;;;;;;;17.00;12.20;;;6.30;99.90;;;;;;5051329;28;20471;-70
2022/11/29 04:08:27;;;;;;;15.32;11.38;;;6.30;99.90;;;;;;5050853;28;20024;-71
2022/11/29 04:11:20;;;;;;;15.57;11.65;;;6.30;99.90;;;;;;5051751;28;20051;-71
2022/11/29 04:14:23;;;;;;;15.73;11.70;;;6.30;99.90;;;;;;5047413;28;20496;-70
2022/11/29 04:17:10;;;;;;;15.70;11.65;;;6.30;99.90;;;;;;5052167;28;20086;-71
2022/11/29 04:19:52;;;;;;;15.65;11.45;;;6.30;99.90;;;;;;5051858;28;20126;-70
2022/11/29 04:23:06;;;;;;;16.42;11.93;;;6.30;99.90;;;;;;5060784;28;20549;-70
2022/11/29 04:25:50;;;;;;;14.67;11.03;;;6.40;99.90;;;;;;5041484;28;20040;-70
2022/11/29 04:29:07;;;;;;;16.13;11.90;;;6.30;99.90;;;;;;5044522;28;20285;-71
2022/11/29 04:32:01;;;;;;;17.52;11.32;;;6.40;99.90;;;;;;5036574;28;20037;-71
2022/11/29 04:34:59;;;;;;;15.32;11.25;;;6.40;99.90;;;;;;5055900;28;20029;-71
2022/11/29 04:37:53;;;;;;;15.38;11.43;;;6.30;99.90;;;;;;5029363;28;20029;-70
2022/11/29 04:40:25;;;;;;;16.67;12.38;;;6.30;99.90;;;;;;5053434;28;20028;-71
2022/11/29 04:43:05;;;;;;;19.30;11.98;;;6.40;99.90;;;;;;5052862;28;20025;-70
2022/11/29 04:46:16;;;;;;;16.55;12.13;;;6.30;99.90;;;;;;5051199;28;20032;-70
2022/11/29 04:49:04;;;;;;;20.73;13.98;;;6.30;99.90;;;;;;5045580;28;20044;-70
2022/11/29 04:51:56;;;;;;;21.63;14.25;;;6.30;99.90;;;;;;5043834;28;20020;-71
2022/11/29 04:54:40;;;;;;;22.10;14.15;;;6.30;99.90;;;;;;5037580;28;20112;-70
2022/11/29 04:57:10;;;;;;;21.50;13.77;;;6.40;99.90;;;;;;5056075;28;20434;-70
2022/11/29 04:59:41;;;;;;;20.02;13.40;;;6.30;99.90;;;;;;5056962;28;20024;-70
2022/11/29 05:02:19;;;;;;;26.52;14.48;;;6.30;99.90;;;;;;5056457;28;20036;-70
2022/11/29 05:04:57;;;;;;;21.27;13.63;;;6.30;99.90;;;;;;5049943;28;20024;-71
2022/11/29 05:07:45;;;;;;;19.52;13.45;;;6.40;99.90;;;;;;5054242;28;20029;-70
2022/11/29 05:10:23;;;;;;;19.20;13.20;;;6.40;99.90;;;;;;5048457;28;20029;-70
2022/11/29 05:13:16;;;;;;;19.17;12.73;;;6.40;99.90;;;;;;5046855;28;20032;-71
2022/11/29 05:15:53;;;;;;;41.65;12.70;;;6.40;99.90;;;;;;5047541;28;20384;-70
2022/11/29 05:18:41;;;;;;;24.48;11.63;;;6.40;99.90;;;;;;5054683;28;20086;-71
2022/11/29 05:21:12;;;;;;;56.17;12.23;;;;;;;;;;5049013;28;20123;-71
2022/11/29 05:23:47;;;;;;;15.88;11.30;;;6.30;99.90;;;;;;5056449;28;20500;-70
2022/11/29 05:26:30;;;;;;;73.10;12.40;;;6.40;99.90;;;;;;5046768;28;20036;-70
2022/11/29 05:29:18;;;;;;;21.88;11.80;;;6.40;99.90;;;;;;5045993;28;20498;-71
2022/11/29 05:32:20;;;;;;;21.70;12.40;;;6.40;99.90;;;;;;5052703;28;20075;-71
2022/11/29 05:34:58;;;;;;;19.15;12.50;;;6.40;99.90;;;;;;5049114;28;20025;-71
2022/11/29 05:37:45;;;;;;;23.25;13.07;;;6.40;99.90;;;;;;5052422;28;20524;-71
2022/11/29 05:40:48;;;;;;;39.40;13.25;;;6.40;99.90;;;;;;5051533;28;20036;-70
2022/11/29 05:43:35;;;;;;;20.08;12.57;;;6.40;99.90;;;;;;5049270;28;20025;-71
2022/11/29 05:46:11;;;;;;;23.30;11.77;;;6.40;99.90;;;;;;5052490;28;20013;-71
2022/11/29 05:48:53;;;;;;;15.65;11.27;;;6.40;99.90;;;;;;5046691;28;20065;-71
2022/11/29 05:51:39;;;;;;;15.00;11.13;;;6.40;99.90;;;;;;5045797;28;20174;-71
2022/11/29 05:54:23;;;;;;;14.32;10.45;;;6.40;99.90;;;;;;5049181;28;20025;-70
2022/11/29 05:57:07;;;;;;;14.32;10.63;;;6.40;99.90;;;;;;5048805;28;20017;-70
2022/11/29 05:59:36;;;;;;;15.40;10.60;;;6.40;99.90;;;;;;5050169;28;20055;-70
2022/11/29 06:02:31;;;;;;;12.73;9.63;;;6.40;99.90;;;;;;5049485;28;20103;-71
2022/11/29 06:05:31;;;;;;;16.70;11.13;;;6.40;99.90;;;;;;5046000;28;20017;-71
2022/11/29 06:08:09;;;;;;;16.10;10.13;;;6.40;99.90;;;;;;5056916;28;20040;-71
2022/11/29 06:10:38;;;;;;;17.67;10.00;;;6.40;99.90;;;;;;5053988;28;20025;-71
2022/11/29 06:13:28;;;;;;;17.02;11.40;;;6.40;99.90;;;;;;5054497;28;20044;-70
2022/11/29 06:16:06;;;;;;;17.38;10.90;;;6.40;99.90;;;;;;5044156;28;20024;-71
2022/11/29 06:18:47;;;;;;;27.15;17.15;;;6.30;99.90;;;;;;5051476;28;20047;-70
2022/11/29 06:21:44;;;;;;;28.83;16.55;;;6.40;99.90;;;;;;5052994;28;20044;-70
2022/11/29 06:24:21;;;;;;;25.95;16.23;;;6.40;99.90;;;;;;5043335;28;20067;-71
2022/11/29 06:27:14;;;;;;;35.75;21.27;;;6.40;99.90;;;;;;5051814;28;20693;-71
2022/11/29 06:29:53;;;;;;;45.75;28.05;;;6.40;99.90;;;;;;5053687;28;20032;-70
2022/11/29 06:32:57;;;;;;;40.70;25.55;;;6.40;99.90;;;;;;5044311;28;20055;-70
2022/11/29 06:35:45;;;;;;;30.30;20.42;;;6.40;99.90;;;;;;5046392;28;20025;-71
2022/11/29 06:38:26;;;;;;;22.30;15.02;;;6.40;99.90;;;;;;5056312;28;20056;-71
2022/11/29 06:40:54;;;;;;;23.67;12.57;;;6.40;99.90;;;;;;5049417;28;20028;-71
2022/11/29 06:43:20;;;;;;;20.95;12.57;;;6.40;99.90;;;;;;5047927;28;20076;-71
2022/11/29 06:45:51;;;;;;;24.13;12.77;;;6.40;99.90;;;;;;5047073;28;20420;-71
2022/11/29 06:48:25;;;;;;;18.40;11.45;;;6.50;99.90;;;;;;5060514;28;20031;-71
2022/11/29 06:51:12;;;;;;;24.23;13.63;;;6.30;99.90;;;;;;5061732;28;20024;-71
2022/11/29 06:53:54;;;;;;;22.20;13.48;;;6.30;99.90;;;;;;5060193;28;20427;-70
2022/11/29 06:56:28;;;;;;;20.63;13.35;;;6.40;99.90;;;;;;5053663;28;20025;-70
2022/11/29 06:59:17;;;;;;;27.15;17.35;;;6.30;99.90;;;;;;5058974;28;20037;-71
2022/11/29 07:02:02;;;;;;;37.83;22.25;;;6.40;99.90;;;;;;5040891;28;20028;-71
2022/11/29 07:04:52;;;;;;;31.83;19.13;;;6.40;99.90;;;;;;5047051;28;20040;-71
2022/11/29 07:07:20;;;;;;;24.17;15.60;;;6.50;99.90;;;;;;5050865;28;20040;-70
2022/11/29 07:09:48;;;;;;;24.27;15.45;;;6.50;99.90;;;;;;5054117;28;20024;-71
2022/11/29 07:12:15;;;;;;;23.50;13.98;;;6.50;99.90;;;;;;5049406;28;20029;-70
2022/11/29 07:14:41;;;;;;;24.13;13.38;;;;;;;;;;5050787;28;20040;-70
2022/11/29 07:17:35;;;;;;;21.92;12.98;;;6.40;99.90;;;;;;5052399;28;20375;-70
2022/11/29 07:20:25;;;;;;;22.85;11.98;;;6.40;99.90;;;;;;5048368;28;20020;-70
2022/11/29 07:23:13;;;;;;;21.50;12.88;;;6.40;99.90;;;;;;5049386;28;20036;-70
2022/11/29 07:25:57;;;;;;;26.38;13.80;;;6.40;99.90;;;;;;5052306;28;20092;-71
2022/11/29 07:29:09;;;;;;;24.38;12.90;;;6.40;99.90;;;;;;5053767;28;20098;-71
2022/11/29 07:31:52;;;;;;;23.40;11.80;;;6.50;99.90;;;;;;5049355;28;20051;-70
2022/11/29 07:34:35;;;;;;;23.10;11.82;;;6.50;99.90;;;;;;5058524;28;20081;-70
2022/11/29 07:37:31;;;;;;;24.65;12.98;;;6.50;99.90;;;;;;5054694;28;20504;-70
2022/11/29 07:40:03;;;;;;;31.08;13.05;;;6.50;99.90;;;;;;5060003;28;20059;-70
2022/11/29 07:42:57;;;;;;;26.42;12.10;;;6.50;99.90;;;;;;5046251;28;20029;-71
2022/11/29 07:45:33;;;;;;;27.92;12.38;;;6.60;99.90;;;;;;5053531;28;20116;-70
2022/11/29 07:47:58;;;;;;;30.15;12.18;;;6.60;99.90;;;;;;5053446;28;20707;-71
2022/11/29 07:50:26;;;;;;;31.17;12.73;;;6.60;99.90;;;;;;5057102;28;20021;-71
2022/11/29 07:52:52;;;;;;;29.02;11.18;;;6.60;99.90;;;;;;5062992;28;20024;-70
2022/11/29 07:55:20;;;;;;;24.63;10.93;;;6.60;99.90;;;;;;5059875;28;20025;-71
2022/11/29 07:57:47;;;;;;;27.92;11.75;;;6.70;99.90;;;;;;5064064;28;20496;-72
2022/11/29 08:00:13;;;;;;;25.52;11.15;;;6.70;99.90;;;;;;5059771;28;20032;-71
2022/11/29 08:02:41;;;;;;;29.20;11.68;;;6.70;99.90;;;;;;5051039;28;20472;-71
2022/11/29 08:05:07;;;;;;;27.73;10.68;;;6.90;99.90;;;;;;5055727;28;20381;-71
2022/11/29 08:07:35;;;;;;;26.85;9.80;;;6.90;99.90;;;;;;5052634;28;20020;-71
2022/11/29 08:10:01;;;;;;;21.80;10.02;;;6.90;99.90;;;;;;5057331;28;20033;-71
2022/11/29 08:12:27;;;;;;;40.75;12.27;;;6.90;99.90;;;;;;5056257;28;20024;-71
2022/11/29 08:14:52;;;;;;;37.40;11.68;;;6.90;99.90;;;;;;5060971;28;20506;-71
2022/11/29 08:17:18;;;;;;;31.45;11.48;;;6.90;99.90;;;;;;5060979;28;20036;-71
2022/11/29 08:19:44;;;;;;;23.95;10.45;;;6.90;99.90;;;;;;5060441;28;20032;-71
2022/11/29 08:22:11;;;;;;;24.10;10.65;;;6.90;99.90;;;;;;5053029;28;20039;-71
2022/11/29 08:24:37;;;;;;;23.50;10.52;;;6.90;99.90;;;;;;5056726;28;20453;-71
2022/11/29 08:27:02;;;;;;;23.98;10.73;;;6.90;99.90;;;;;;5050614;28;20123;-71
2022/11/29 08:29:28;;;;;;;28.77;11.88;;;7.00;99.90;;;;;;5053902;28;20038;-71
2022/11/29 08:31:55;;;;;;;28.15;11.50;;;7.00;99.90;;;;;;5051468;28;20033;-71
2022/11/29 08:34:22;;;;;;;28.05;11.45;;;7.00;99.90;;;;;;5049282;28;20082;-71
2022/11/29 08:36:49;;;;;;;33.47;12.63;;;7.10;99.90;;;;;;5061120;28;20029;-71
2022/11/29 08:39:15;;;;;;;27.08;11.48;;;7.10;99.90;;;;;;5057878;28;20028;-71
2022/11/29 08:41:41;;;;;;;25.38;12.18;;;7.10;99.90;;;;;;5058740;28;20064;-71
2022/11/29 08:44:07;;;;;;;29.42;12.45;;;;;;;;;;5048375;28;20060;-70
2022/11/29 08:49:18;;;;;;;30.52;14.20;;;7.30;99.90;;;;;;5063731;28;20166;-71
2022/11/29 08:51:43;;;;;;;27.08;14.07;;;7.30;99.90;;;;;;5062611;28;20112;-71
2022/11/29 08:54:09;;;;;;;19.23;10.23;;;7.40;99.90;;;;;;5052120;28;20029;-71
2022/11/29 08:56:36;;;;;;;18.88;10.27;;;7.30;99.90;;;;;;5057339;28;20025;-71
2022/11/29 08:59:03;;;;;;;19.88;10.50;;;7.40;99.90;;;;;;5061490;28;20265;-71
2022/11/29 09:01:28;;;;;;;22.13;11.63;;;7.40;99.90;;;;;;5050711;28;20172;-71
2022/11/29 09:04:09;;;;;;;22.60;10.27;;;7.30;99.90;;;;;;5043388;28;20496;-72
2022/11/29 09:06:40;;;;;;;20.15;10.68;;;7.40;99.90;;;;;;5062102;28;20078;-71
2022/11/29 09:09:06;;;;;;;19.40;10.32;;;7.40;99.90;;;;;;5055502;28;20060;-72
2022/11/29 09:11:34;;;;;;;21.38;9.73;;;7.40;99.90;;;;;;5047888;28;21152;-71
2022/11/29 09:14:03;;;;;;;19.02;9.18;;;7.40;99.90;;;;;;5051412;28;20057;-72
2022/11/29 09:16:33;;;;;;;19.88;10.18;;;7.50;99.90;;;;;;5053368;28;20115;-72
2022/11/29 09:18:59;;;;;;;16.65;9.18;;;7.50;99.90;;;;;;5058453;28;20107;-71
2022/11/29 09:21:26;;;;;;;19.95;10.60;;;7.50;99.90;;;;;;5058117;28;20107;-73
2022/11/29 09:23:57;;;;;;;25.63;12.75;;;7.50;99.90;;;;;;5046220;28;20050;-72
2022/11/29 09:26:25;;;;;;;23.45;11.43;;;7.50;99.90;;;;;;5063237;28;20037;-72
2022/11/29 09:28:51;;;;;;;34.10;15.70;;;7.50;99.90;;;;;;5048770;28;20715;-72
2022/11/29 09:45:15;;;;;;;28.90;13.63;;;7.50;99.90;;;;;;5106468;27;20563;-72
2022/11/29 09:48:18;;;;;;;28.65;13.82;;;7.60;99.90;;;;;;5092217;28;20518;-71
2022/11/29 09:50:46;;;;;;;27.30;13.32;;;7.60;99.90;;;;;;5093502;28;20020;-72
2022/11/29 09:53:33;;;;;;;28.08;13.45;;;7.60;99.90;;;;;;5092595;28;20599;-71
2022/11/29 09:56:37;;;;;;;28.88;14.35;;;7.60;99.90;;;;;;5098543;28;20011;-71
2022/11/29 09:59:38;;;;;;;23.73;13.85;;;7.70;99.90;;;;;;5089827;28;20509;-72
2022/11/29 10:02:31;;;;;;;25.70;12.95;;;7.70;99.90;;;;;;5074460;28;20040;-71
2022/11/29 10:05:30;;;;;;;28.83;14.68;;;7.70;99.90;;;;;;5076901;28;20386;-73
2022/11/29 10:08:08;;;;;;;31.83;14.80;;;7.70;99.90;;;;;;5065135;28;20037;-72
2022/11/29 10:10:43;;;;;;;27.17;14.05;;;7.80;99.90;;;;;;5076999;28;20040;-72
2022/11/29 10:13:33;;;;;;;29.33;13.73;;;7.80;99.90;;;;;;5074905;28;20444;-71
2022/11/29 10:16:08;;;;;;;29.20;14.15;;;7.80;99.90;;;;;;5074403;28;20035;-72
2022/11/29 10:18:43;;;;;;;27.13;13.77;;;7.80;99.90;;;;;;5079362;28;20028;-71
2022/11/29 10:21:16;;;;;;;26.80;14.00;;;;;;;;;;5078196;28;20021;-72
2022/11/29 10:23:52;;;;;;;24.30;13.67;;;7.80;99.90;;;;;;5074132;28;20257;-71
2022/11/29 10:26:19;;;;;;;25.70;14.43;;;7.70;99.90;;;;;;5073157;28;20282;-72
2022/11/29 10:28:49;;;;;;;30.02;15.38;;;7.60;99.90;;;;;;5080266;28;20085;-72
2022/11/29 10:31:26;;;;;;;27.63;15.00;;;7.60;99.90;;;;;;5073331;28;20024;-72
2022/11/29 10:33:53;;;;;;;29.58;15.00;;;7.70;99.90;;;;;;5069644;28;20031;-72
2022/11/29 10:36:48;;;;;;;30.58;14.75;;;7.60;99.90;;;;;;5074991;28;20028;-73
2022/11/29 10:39:36;;;;;;;30.48;16.35;;;7.60;99.90;;;;;;5070888;28;20272;-72
2022/11/29 10:42:02;;;;;;;31.13;16.48;;;7.60;99.90;;;;;;5075378;28;20083;-72
2022/11/29 10:44:31;;;;;;;29.92;16.33;;;7.70;99.90;;;;;;5081192;28;20043;-71
2022/11/29 10:46:59;;;;;;;31.25;16.20;;;7.70;99.90;;;;;;5077054;28;20088;-72
2022/11/29 10:49:31;;;;;;;31.17;15.93;;;7.60;99.90;;;;;;5084314;28;20716;-73
2022/11/29 10:51:57;;;;;;;30.52;16.17;;;7.60;99.90;;;;;;5081657;28;20036;-70
2022/11/29 10:54:41;;;;;;;28.80;15.65;;;7.60;99.90;;;;;;5082223;28;20039;-70
2022/11/29 10:57:15;;;;;;;30.10;17.00;;;7.60;99.90;;;;;;5080920;28;20020;-71
2022/11/29 10:59:41;;;;;;;27.80;14.65;;;7.70;99.90;;;;;;5084945;28;20028;-71
2022/11/29 11:02:21;;;;;;;24.77;13.43;;;7.70;99.90;;;;;;5085339;28;20397;-70
2022/11/29 11:04:47;;;;;;;22.50;13.15;;;7.80;99.90;;;;;;5083673;28;20032;-70
2022/11/29 11:07:24;;;;;;;19.48;12.80;;;;;;;;;;5081942;28;20035;-71
2022/11/29 11:09:54;;;;;;;25.60;14.15;;;8.00;99.90;;;;;;5079807;28;20031;-71
2022/11/29 11:12:29;;;;;;;20.08;12.80;;;8.00;99.90;;;;;;5076143;28;20031;-71
2022/11/29 11:15:28;;;;;;;21.17;13.18;;;8.10;99.90;;;;;;5080813;28;20038;-71
2022/11/29 11:17:59;;;;;;;20.83;12.68;;;8.10;99.90;;;;;;5079264;28;20024;-71
2022/11/29 11:20:29;;;;;;;21.77;13.40;;;8.20;99.90;;;;;;5079898;28;20039;-71
2022/11/29 11:23:04;;;;;;;23.80;13.80;;;8.20;99.90;;;;;;5083302;28;20028;-71
2022/11/29 11:25:34;;;;;;;23.48;13.80;;;8.30;99.90;;;;;;5085471;28;20062;-71
2022/11/29 11:28:16;;;;;;;21.77;13.80;;;8.30;99.90;;;;;;5078927;28;20349;-71
2022/11/29 11:30:57;;;;;;;24.95;13.77;;;8.30;99.90;;;;;;5078943;28;20035;-71
2022/11/29 11:33:28;;;;;;;24.67;14.75;;;8.30;99.90;;;;;;5081236;28;20409;-70
2022/11/29 11:36:08;;;;;;;24.60;14.43;;;8.30;99.90;;;;;;5080724;28;20020;-71
2022/11/29 11:38:46;;;;;;;23.75;14.05;;;8.30;99.90;;;;;;5076626;28;20024;-71
2022/11/29 11:44:52;;;;;;;26.05;13.70;;;8.30;99.90;;;;;;5078535;28;20566;-71
2022/11/29 11:47:26;;;;;;;24.92;14.85;;;8.30;99.90;;;;;;5043894;28;20048;-71
2022/11/29 11:50:01;;;;;;;24.00;14.90;;;8.30;99.90;;;;;;5052933;28;20036;-71
2022/11/29 11:52:32;;;;;;;25.65;15.88;;;8.30;99.90;;;;;;5058540;28;20046;-71
2022/11/29 11:55:01;;;;;;;24.10;14.70;;;8.30;99.90;;;;;;5060572;28;20505;-71
2022/11/29 11:57:28;;;;;;;24.48;15.00;;;8.30;99.90;;;;;;5060599;28;20113;-71
2022/11/29 11:59:56;;;;;;;23.48;15.30;;;8.30;99.90;;;;;;5055889;28;20052;-72
2022/11/29 12:02:36;;;;;;;26.10;16.02;;;8.30;99.90;;;;;;5053119;28;20183;-71
2022/11/29 12:05:05;;;;;;;25.08;14.82;;;8.30;99.90;;;;;;5053701;28;20021;-71
2022/11/29 12:07:42;;;;;;;26.63;15.75;;;8.30;99.90;;;;;;5056732;28;20271;-71
2022/11/29 12:10:17;;;;;;;30.50;16.42;;;8.30;99.90;;;;;;5057492;28;20103;-71
2022/11/29 12:12:44;;;;;;;27.15;16.20;;;8.40;99.90;;;;;;5052330;28;20473;-71
2022/11/29 12:15:24;;;;;;;30.30;16.88;;;8.30;99.90;;;;;;5051023;28;20031;-71
2022/11/29 12:18:08;;;;;;;31.85;16.38;;;8.30;99.90;;;;;;5062161;28;20495;-71
2022/11/29 12:20:56;;;;;;;30.35;16.10;;;8.30;99.90;;;;;;5051623;28;20028;-71
2022/11/29 12:23:22;;;;;;;32.00;17.48;;;;;;;;;;5058351;28;20024;-71
2022/11/29 12:26:10;;;;;;;30.45;17.38;;;8.30;99.90;;;;;;5058603;28;20170;-70
2022/11/29 12:28:39;;;;;;;29.63;16.63;;;8.20;99.90;;;;;;4701651;28;10000272;-69
2022/11/29 12:31:10;;;;;;;32.47;17.38;;;8.20;99.90;;;;;;5054489;28;20025;-70
2022/11/29 12:33:49;;;;;;;31.83;17.38;;;8.20;99.90;;;;;;5053943;28;20102;-70
2022/11/29 12:36:38;;;;;;;38.08;18.73;;;8.20;99.90;;;;;;5056237;28;20030;-70
2022/11/29 12:39:06;;;;;;;34.20;17.75;;;8.20;99.90;;;;;;5048124;28;20232;-70
2022/11/29 12:41:47;;;;;;;35.10;18.45;;;8.20;99.90;;;;;;5057317;28;20482;-70
2022/11/29 12:44:20;;;;;;;35.47;18.65;;;8.10;99.90;;;;;;5064045;28;20137;-70
2022/11/29 12:47:05;;;;;;;37.17;18.98;;;8.10;99.90;;;;;;5085803;28;20039;-70
2022/11/29 12:50:00;;;;;;;36.55;19.35;;;8.20;99.90;;;;;;5073595;28;20057;-70
2022/11/29 12:52:35;;;;;;;35.13;18.98;;;8.20;99.90;;;;;;5071867;28;20155;-71
2022/11/29 12:55:40;;;;;;;42.85;19.67;;;8.20;99.90;;;;;;5069857;28;20040;-71
2022/11/29 12:58:31;;;;;;;41.90;20.15;;;8.20;99.90;;;;;;5047901;28;20117;-71
2022/11/29 13:01:18;;;;;;;41.33;19.73;;;8.20;99.90;;;;;;5077412;28;20107;-71
2022/11/29 13:04:10;;;;;;;43.75;20.38;;;8.20;99.90;;;;;;5071542;28;20400;-71
2022/11/29 13:06:49;;;;;;;36.30;17.98;;;8.20;99.90;;;;;;5072008;28;20024;-71
2022/11/29 13:09:50;;;;;;;34.60;17.85;;;8.20;99.90;;;;;;5073896;28;20108;-71
2022/11/29 13:12:18;;;;;;;33.22;17.27;;;8.20;99.90;;;;;;5064471;28;20043;-71
2022/11/29 13:14:53;;;;;;;35.65;18.52;;;8.20;99.90;;;;;;5073454;28;20507;-71
2022/11/29 13:17:51;;;;;;;36.13;19.30;;;8.10;99.90;;;;;;5076236;28;20115;-71
2022/11/29 13:20:25;;;;;;;33.15;17.30;;;8.20;99.90;;;;;;5076718;28;21193;-71
2022/11/29 13:23:21;;;;;;;32.65;16.48;;;8.20;99.90;;;;;;5067916;28;20212;-71
2022/11/29 13:25:50;;;;;;;35.67;18.92;;;8.10;99.90;;;;;;5061274;28;20043;-71
2022/11/29 13:28:28;;;;;;;36.05;18.35;;;8.10;99.90;;;;;;5072747;28;20455;-71
2022/11/29 13:31:12;;;;;;;38.47;19.52;;;8.10;99.90;;;;;;5068268;28;20059;-70
2022/11/29 13:33:43;;;;;;;39.92;19.67;;;8.10;99.90;;;;;;5072181;28;20465;-71
2022/11/29 13:36:18;;;;;;;38.55;19.55;;;8.10;99.90;;;;;;5069136;28;20024;-71
2022/11/29 13:39:00;;;;;;;40.80;19.83;;;8.20;99.90;;;;;;5070922;28;20031;-71
2022/11/29 13:41:55;;;;;;;38.80;19.35;;;8.20;99.90;;;;;;5072964;28;20047;-71
2022/11/29 13:44:36;;;;;;;39.33;19.17;;;8.30;99.90;;;;;;5025811;28;20059;-70
2022/11/29 13:47:10;;;;;;;36.10;18.45;;;8.30;99.90;;;;;;5078338;28;20474;-70
2022/11/29 13:49:58;;;;;;;35.47;18.30;;;8.30;99.90;;;;;;5078298;28;20107;-71
2022/11/29 13:52:41;;;;;;;39.05;18.98;;;8.30;99.90;;;;;;5072500;28;20032;-73
2022/11/29 13:55:10;;;;;;;34.50;18.02;;;8.30;99.90;;;;;;5075218;28;20240;-71